| time (UTC) | temp F | wind direction | speed MPH | gust MPH | rain 1hr in | rain 24hr in | rain mn in | humidity % | barometer mb |
| 20260905034008 | 60 | 45 | 4.0 | 6.0 | 0.02 | 0.02 | 0.02 | 93 | 1016.0 |
| 20260905033007 | 60 | 0 | 3.0 | 7.0 | 0.01 | 0.01 | 0.01 | 92 | 1015.8 |
| 20260905032009 | 60 | 0 | 1.0 | 3.0 | 0.01 | 0.01 | 0.01 | 92 | 1015.1 |
| 20260905031008 | 60 | 0 | 2.0 | 4.0 | 0.01 | 0.01 | 0.01 | 91 | 1014.8 |
| 20260905030017 | 60 | 0 | 1.0 | 3.0 | 0.01 | 0.01 | 0.01 | 93 | 1014.9 |
| 20260905025007 | 61 | 270 | 2.0 | 4.0 | 0.01 | 0.01 | 0.01 | 93 | 1015.0 |
| 20260905024006 | 61 | 225 | 3.0 | 4.0 | 0.00 | 0.00 | 0.00 | 92 | 1014.8 |
| 20260905023010 | 61 | 270 | 3.0 | 4.0 | 0.00 | 0.00 | 0.00 | 90 | 1014.8 |
| 20260905022005 | 62 | 270 | 3.0 | 4.0 | 0.00 | 0.00 | 0.00 | 89 | 1014.4 |
| 20260905021007 | 62 | 0 | 4.0 | 7.0 | 0.00 | 0.00 | 0.00 | 87 | 1014.6 |
| 20260905020021 | 63 | 270 | 4.0 | 6.0 | 0.00 | 0.00 | 0.00 | 84 | 1014.7 |
| 20260905015008 | 63 | 0 | 2.0 | 4.0 | 0.00 | 0.00 | 0.00 | 82 | 1014.1 |
| 20260905013011 | 63 | 135 | 4.0 | 6.0 | 0.00 | 0.00 | 0.00 | 80 | 1014.1 |
| 20260905012005 | 64 | 0 | 4.0 | 5.0 | 0.00 | 0.00 | 0.00 | 80 | 1014.2 |
| 20260905011008 | 64 | 135 | 3.0 | 4.0 | 0.00 | 0.00 | 0.00 | 80 | 1014.1 |
| 20260905005006 | 64 | 0 | 4.0 | 7.0 | 0.00 | 0.00 | 0.00 | 77 | 1013.6 |
| 20260905003015 | 65 | 0 | 5.0 | 9.0 | 0.00 | 0.00 | 0.00 | 77 | 1013.6 |
| 20260905002007 | 65 | 270 | 5.0 | 11.0 | 0.00 | 0.00 | 0.00 | 77 | 1013.2 |
| 20260905001010 | 65 | 135 | 4.0 | 8.0 | 0.00 | 0.00 | 0.00 | 76 | 1013.2 |
| 20260905000013 | 66 | 135 | 5.0 | 10.0 | 0.00 | 0.00 | 0.00 | 73 | 1013.0 |
| 20260904235008 | 67 | 270 | 4.0 | 8.0 | 0.00 | 0.00 | 0.00 | 69 | 1012.7 |
| 20260904234009 | 67 | 135 | 4.0 | 6.0 | 0.00 | 0.00 | 0.00 | 69 | 1012.3 |
| 20260904233013 | 68 | 0 | 4.0 | 6.0 | 0.00 | 0.00 | 0.00 | 68 | 1011.9 |
| 20260904232007 | 68 | 45 | 2.0 | 5.0 | 0.00 | 0.00 | 0.00 | 70 | 1011.9 |
| 20260904231008 | 67 | 45 | 2.0 | 6.0 | 0.00 | 0.00 | 0.00 | 71 | 1011.7 |
| 20260904230011 | 67 | 0 | 4.0 | 7.0 | 0.00 | 0.00 | 0.00 | 71 | 1011.2 |
| 20260904225005 | 68 | 0 | 4.0 | 8.0 | 0.00 | 0.00 | 0.00 | 71 | 1011.1 |
| 20260904224007 | 69 | 135 | 4.0 | 7.0 | 0.00 | 0.00 | 0.00 | 69 | 1010.8 |
| 20260904223010 | 69 | 135 | 3.0 | 5.0 | 0.00 | 0.00 | 0.00 | 72 | 1010.5 |
| 20260904220017 | 68 | 270 | 2.0 | 3.0 | 0.00 | 0.00 | 0.00 | 76 | 1009.7 |
| 20260904215006 | 68 | 0 | 1.0 | 3.0 | 0.00 | 0.00 | 0.00 | 76 | 1009.4 |
| 20260904214005 | 69 | 135 | 1.0 | 3.0 | 0.00 | 0.00 | 0.00 | 74 | 1009.4 |
| 20260904213009 | 70 | 135 | 1.0 | 3.0 | 0.00 | 0.00 | 0.00 | 73 | 1009.1 |
| 20260904212005 | 71 | 270 | 2.0 | 4.0 | 0.00 | 0.00 | 0.00 | 70 | 1009.0 |
| 20260904211005 | 72 | 135 | 3.0 | 6.0 | 0.00 | 0.00 | 0.00 | 68 | 1008.9 |
| 20260904210010 | 73 | 270 | 4.0 | 7.0 | 0.00 | 0.00 | 0.00 | 65 | 1008.9 |
| 20260904205007 | 73 | 135 | 3.0 | 4.0 | 0.00 | 0.00 | 0.00 | 64 | 1008.6 |
| 20260904204005 | 73 | 180 | 3.0 | 5.0 | 0.00 | 0.00 | 0.00 | 62 | 1008.3 |
| 20260904203008 | 73 | 180 | 2.0 | 4.0 | 0.00 | 0.00 | 0.00 | 63 | 1008.4 |
| 20260904202006 | 73 | 270 | 1.0 | 3.0 | 0.00 | 0.00 | 0.00 | 65 | 1008.6 |
| 20260904201008 | 72 | 225 | 0.0 | 3.0 | 0.00 | 0.00 | 0.00 | 66 | 1008.7 |
| 20260904200011 | 72 | 225 | 1.0 | 3.0 | 0.00 | 0.00 | 0.00 | 66 | 1008.8 |
| 20260904195005 | 73 | 225 | 0.0 | 2.0 | 0.00 | 0.00 | 0.00 | 66 | 1008.9 |
| 20260904194008 | 73 | 225 | 1.0 | 3.0 | 0.00 | 0.00 | 0.00 | 66 | 1008.9 |
| 20260904193010 | 73 | 225 | 1.0 | 4.0 | 0.00 | 0.00 | 0.00 | 66 | 1009.0 |
| 20260904192008 | 73 | 315 | 2.0 | 3.0 | 0.00 | 0.00 | 0.00 | 65 | 1008.8 |
| 20260904191006 | 73 | 225 | 1.0 | 3.0 | 0.00 | 0.00 | 0.00 | 65 | 1008.8 |
| 20260904190013 | 74 | 225 | 1.0 | 2.0 | 0.00 | 0.00 | 0.00 | 63 | 1008.7 |
| 20260904185009 | 74 | 225 | 2.0 | 5.0 | 0.00 | 0.00 | 0.00 | 63 | 1008.8 |
| 20260904184006 | 75 | 225 | 2.0 | 4.0 | 0.00 | 0.00 | 0.00 | 61 | 1008.7 |
| 20260904183009 | 75 | 225 | 3.0 | 4.0 | 0.00 | 0.00 | 0.00 | 61 | 1008.8 |
| 20260904182005 | 76 | 225 | 3.0 | 4.0 | 0.00 | 0.00 | 0.00 | 60 | 1008.8 |
| 20260904181007 | 76 | 270 | 2.0 | 4.0 | 0.00 | 0.00 | 0.00 | 60 | 1008.7 |
| 20260904175009 | 76 | 0 | 1.0 | 2.0 | 0.00 | 0.00 | 0.00 | 62 | 1009.0 |
| 20260904174008 | 76 | 225 | 2.0 | 3.0 | 0.00 | 0.00 | 0.00 | 62 | 1008.9 |
| 20260904172008 | 78 | 270 | 5.0 | 8.0 | 0.00 | 0.00 | 0.00 | 58 | 1008.9 |
| 20260904171007 | 78 | 270 | 4.0 | 5.0 | 0.00 | 0.00 | 0.00 | 58 | 1008.9 |
| 20260904170015 | 79 | 270 | 6.0 | 9.0 | 0.00 | 0.00 | 0.00 | 56 | 1008.8 |
| 20260904165005 | 80 | 270 | 5.0 | 8.0 | 0.00 | 0.00 | 0.00 | 56 | 1008.7 |
| 20260904164007 | 80 | 270 | 5.0 | 9.0 | 0.00 | 0.00 | 0.00 | 54 | 1008.6 |
| 20260904163107 | 80 | 270 | 10.0 | 14.0 | 0.00 | 0.00 | 0.00 | 54 | 1008.5 |
| 20260904163007 | 80 | 270 | 10.0 | 14.0 | 0.00 | 0.00 | 0.00 | 54 | 1008.5 |
| 20260904162006 | 81 | 225 | 6.0 | 9.0 | 0.00 | 0.00 | 0.00 | 55 | 1008.4 |
| 20260904161006 | 80 | 270 | 5.0 | 7.0 | 0.00 | 0.00 | 0.00 | 57 | 1008.6 |
| 20260904160013 | 79 | 270 | 7.0 | 14.0 | 0.00 | 0.00 | 0.00 | 56 | 1008.8 |
| 20260904155006 | 81 | 0 | 8.0 | 14.0 | 0.00 | 0.00 | 0.00 | 54 | 1008.7 |
| 20260904154007 | 82 | 0 | 9.0 | 12.0 | 0.00 | 0.00 | 0.00 | 54 | 1008.9 |
| 20260904151007 | 80 | 225 | 11.0 | 14.0 | 0.00 | 0.00 | 0.00 | 55 | 1009.3 |
| 20260904150017 | 80 | 225 | 11.0 | 18.0 | 0.00 | 0.00 | 0.00 | 55 | 1009.4 |
| 20260904145007 | 80 | 270 | 10.0 | 16.0 | 0.00 | 0.00 | 0.00 | 54 | 1009.7 |
| 20260904144009 | 80 | 270 | 10.0 | 16.0 | 0.00 | 0.00 | 0.00 | 56 | 1009.8 |
| 20260904143013 | 80 | 270 | 11.0 | 17.0 | 0.00 | 0.00 | 0.00 | 56 | 1009.9 |
| 20260904142009 | 81 | 270 | 6.0 | 10.0 | 0.00 | 0.00 | 0.00 | 59 | 1010.1 |
| 20260904141010 | 79 | 270 | 5.0 | 10.0 | 0.00 | 0.00 | 0.00 | 59 | 1010.1 |
| 20260904140018 | 80 | 0 | 7.0 | 11.0 | 0.00 | 0.00 | 0.00 | 59 | 1010.4 |
| 20260904135009 | 80 | 270 | 8.0 | 11.0 | 0.00 | 0.00 | 0.00 | 61 | 1010.7 |
| 20260904134007 | 79 | 270 | 7.0 | 11.0 | 0.00 | 0.00 | 0.00 | 61 | 1010.8 |
| 20260904133013 | 79 | 270 | 5.0 | 9.0 | 0.00 | 0.00 | 0.00 | 63 | 1011.0 |
| 20260904132008 | 78 | 270 | 6.0 | 9.0 | 0.00 | 0.00 | 0.00 | 62 | 1011.2 |
| 20260904131007 | 78 | 270 | 8.0 | 11.0 | 0.00 | 0.00 | 0.00 | 63 | 1011.3 |
| 20260904130014 | 78 | 270 | 10.0 | 15.0 | 0.00 | 0.00 | 0.00 | 62 | 1011.3 |
| 20260904125009 | 79 | 270 | 11.0 | 17.0 | 0.00 | 0.00 | 0.00 | 61 | 1011.6 |
| 20260904124010 | 78 | 0 | 11.0 | 16.0 | 0.00 | 0.00 | 0.00 | 62 | 1011.7 |
| 20260904123008 | 78 | 270 | 11.0 | 18.0 | 0.00 | 0.00 | 0.00 | 61 | 1011.9 |
| 20260904122007 | 78 | 270 | 7.0 | 11.0 | 0.00 | 0.00 | 0.00 | 61 | 1012.0 |
| 20260904121007 | 78 | 225 | 8.0 | 12.0 | 0.00 | 0.00 | 0.00 | 62 | 1012.0 |
| 20260904120010 | 79 | 180 | 7.0 | 11.0 | 0.00 | 0.00 | 0.00 | 61 | 1012.1 |
| 20260904115012 | 78 | 270 | 11.0 | 15.0 | 0.00 | 0.00 | 0.00 | 62 | 1012.4 |
| 20260904114008 | 81 | 270 | 12.0 | 19.0 | 0.00 | 0.00 | 0.00 | 58 | 1012.1 |
| 20260904113008 | 80 | 270 | 11.0 | 16.0 | 0.00 | 0.00 | 0.00 | 60 | 1012.4 |
| 20260904112008 | 79 | 270 | 11.0 | 16.0 | 0.00 | 0.00 | 0.00 | 61 | 1012.6 |
| 20260904111009 | 79 | 270 | 9.0 | 15.0 | 0.00 | 0.00 | 0.00 | 65 | 1012.7 |
| 20260904110015 | 76 | 225 | 9.0 | 13.0 | 0.00 | 0.00 | 0.00 | 68 | 1013.1 |
| 20260904105008 | 76 | 270 | 8.0 | 15.0 | 0.00 | 0.00 | 0.00 | 65 | 1013.3 |
| 20260904104013 | 77 | 270 | 10.0 | 16.0 | 0.00 | 0.00 | 0.00 | 65 | 1013.3 |
| 20260904102013 | 77 | 270 | 8.0 | 12.0 | 0.00 | 0.00 | 0.00 | 63 | 1013.3 |
| 20260904101008 | 78 | 270 | 11.0 | 16.0 | 0.00 | 0.00 | 0.00 | 62 | 1013.5 |
| 20260904100013 | 79 | 225 | 9.0 | 14.0 | 0.00 | 0.00 | 0.00 | 63 | 1013.3 |
| 20260904095011 | 78 | 270 | 10.0 | 15.0 | 0.00 | 0.00 | 0.00 | 61 | 1013.7 |
| 20260904094011 | 78 | 225 | 8.0 | 13.0 | 0.00 | 0.00 | 0.00 | 62 | 1013.9 |
| 20260904093012 | 76 | 225 | 10.0 | 15.0 | 0.00 | 0.00 | 0.00 | 68 | 1014.3 |
| 20260904092008 | 75 | 270 | 8.0 | 13.0 | 0.00 | 0.00 | 0.00 | 68 | 1014.6 |
| 20260904091011 | 73 | 225 | 6.0 | 10.0 | 0.00 | 0.01 | 0.00 | 69 | 1014.8 |
| 20260904085008 | 71 | 270 | 4.0 | 7.0 | 0.00 | 0.01 | 0.00 | 75 | 1015.2 |
| 20260904084009 | 70 | 270 | 4.0 | 8.0 | 0.00 | 0.01 | 0.00 | 78 | 1015.4 |
| 20260904083008 | 69 | 270 | 4.0 | 6.0 | 0.00 | 0.01 | 0.00 | 78 | 1015.4 |
| 20260904082009 | 68 | 270 | 5.0 | 9.0 | 0.00 | 0.01 | 0.00 | 80 | 1015.8 |
| 20260904081006 | 69 | 270 | 6.0 | 11.0 | 0.00 | 0.01 | 0.00 | 78 | 1015.8 |
| 20260904080014 | 68 | 270 | 6.0 | 10.0 | 0.00 | 0.01 | 0.00 | 79 | 1015.8 |
| 20260904074009 | 69 | 270 | 9.0 | 12.0 | 0.00 | 0.01 | 0.00 | 77 | 1015.7 |
| 20260904073007 | 69 | 270 | 6.0 | 10.0 | 0.00 | 0.01 | 0.00 | 75 | 1015.6 |
| 20260904071009 | 67 | 315 | 3.0 | 4.0 | 0.00 | 0.01 | 0.00 | 77 | 1016.0 |
| 20260904070023 | 67 | 225 | 3.0 | 4.0 | 0.00 | 0.01 | 0.00 | 81 | 1016.0 |
| 20260904065013 | 66 | 225 | 2.0 | 4.0 | 0.00 | 0.01 | 0.00 | 80 | 1016.0 |
| 20260904064010 | 66 | 0 | 1.0 | 3.0 | 0.00 | 0.01 | 0.00 | 82 | 1016.1 |
| 20260904063012 | 65 | 135 | 2.0 | 4.0 | 0.00 | 0.01 | 0.00 | 80 | 1015.9 |
| 20260904061011 | 63 | 0 | 0.0 | 2.0 | 0.00 | 0.01 | 0.00 | 86 | 1016.2 |
| 20260904060018 | 63 | 0 | 0.0 | 2.0 | 0.00 | 0.01 | 0.00 | 85 | 1016.5 |
| 20260904055006 | 62 | 0 | 0.0 | 1.0 | 0.00 | 0.01 | 0.00 | 88 | 1016.4 |
| 20260904054009 | 61 | 0 | 0.0 | 1.0 | 0.00 | 0.01 | 0.00 | 91 | 1016.4 |
| 20260904053012 | 60 | 0 | 0.0 | 1.0 | 0.00 | 0.01 | 0.00 | 93 | 1016.6 |
| 20260904052008 | 59 | 0 | 1.0 | 3.0 | 0.00 | 0.01 | 0.00 | 93 | 1016.6 |
| 20260904051007 | 58 | 0 | 0.0 | 1.0 | 0.00 | 0.01 | 0.00 | 94 | 1016.5 |
| 20260904050015 | 58 | 0 | 0.0 | 2.0 | 0.00 | 0.01 | 0.00 | 94 | 1016.3 |
| 20260904045008 | 58 | 0 | 0.0 | 1.0 | 0.00 | 0.01 | 0.00 | 93 | 1016.5 |
| 20260904044007 | 58 | 0 | 0.0 | 1.0 | 0.00 | 0.01 | 0.00 | 93 | 1016.5 |
| 20260904043011 | 58 | 0 | 0.0 | 1.0 | 0.00 | 0.01 | 0.00 | 93 | 1016.5 |
| 20260904042009 | 58 | 0 | 0.0 | 2.0 | 0.00 | 0.01 | 0.00 | 93 | 1016.5 |
| 20260904041006 | 58 | 0 | 0.0 | 2.0 | 0.00 | 0.01 | 0.00 | 93 | 1016.5 |
| 20260904040013 | 58 | 0 | 0.0 | 0.0 | 0.00 | 0.01 | 0.00 | 92 | 1016.3 |
| 20260904035010 | 58 | 0 | 0.0 | 1.0 | 0.00 | 0.01 | 0.00 | 92 | 1016.3 |